createdAt,value
2023-05-23T00:01:14.758Z,9.23
2023-05-23T00:03:41.646Z,8.73
2023-05-23T00:06:08.935Z,9.50
2023-05-23T00:08:35.753Z,9.70
2023-05-23T00:11:02.452Z,8.88
2023-05-23T00:13:29.112Z,10.52
2023-05-23T00:15:55.757Z,9.70
2023-05-23T00:18:24.815Z,9.35
2023-05-23T00:20:51.934Z,10.40
2023-05-23T00:23:22.513Z,10.55
2023-05-23T00:25:53.073Z,9.15
2023-05-23T00:28:20.258Z,9.88
2023-05-23T00:30:48.912Z,9.95
2023-05-23T00:33:16.804Z,10.00
2023-05-23T00:35:43.862Z,9.75
2023-05-23T00:38:11.645Z,9.70
2023-05-23T00:40:38.433Z,9.93
2023-05-23T00:43:05.183Z,9.60
2023-05-23T00:45:32.066Z,9.90
2023-05-23T00:48:00.359Z,9.73
2023-05-23T00:50:31.943Z,9.82
2023-05-23T00:53:00.522Z,9.27
2023-05-23T00:55:28.352Z,9.27
2023-05-23T00:57:57.037Z,9.57
2023-05-23T01:00:25.306Z,9.98
2023-05-23T01:02:53.668Z,10.60
2023-05-23T01:05:22.734Z,10.30
2023-05-23T01:07:51.066Z,11.82
2023-05-23T01:10:21.263Z,11.43
2023-05-23T01:12:53.966Z,11.57
2023-05-23T01:15:23.732Z,12.85
2023-05-23T01:18:03.192Z,12.00
2023-05-23T01:20:46.713Z,11.80
2023-05-23T01:23:25.241Z,12.98
2023-05-23T01:26:07.034Z,11.57
2023-05-23T01:28:38.005Z,11.70
2023-05-23T01:31:08.158Z,11.35
2023-05-23T01:33:36.363Z,11.93
2023-05-23T01:36:05.957Z,10.90
2023-05-23T01:38:32.629Z,11.57
2023-05-23T01:40:59.282Z,11.38
2023-05-23T01:43:26.364Z,10.90
2023-05-23T01:45:56.118Z,10.77
2023-05-23T01:48:25.068Z,11.45
2023-05-23T01:50:52.486Z,12.25
2023-05-23T01:53:21.925Z,12.07
2023-05-23T01:55:49.351Z,11.97
2023-05-23T01:58:16.119Z,12.13
2023-05-23T02:00:42.864Z,11.93
2023-05-23T02:03:09.739Z,11.57
2023-05-23T02:05:36.509Z,11.98
2023-05-23T02:08:03.536Z,12.93
2023-05-23T02:10:30.391Z,12.15
2023-05-23T02:12:57.053Z,11.27
2023-05-23T02:15:23.815Z,11.93
2023-05-23T02:17:51.491Z,12.02
2023-05-23T02:20:19.013Z,12.48
2023-05-23T02:22:46.583Z,12.27
2023-05-23T02:25:13.345Z,12.10
2023-05-23T02:27:40.081Z,12.30
2023-05-23T02:30:07.707Z,12.25
2023-05-23T02:32:35.019Z,12.60
2023-05-23T02:35:02.240Z,12.20
2023-05-23T02:37:28.905Z,12.27
2023-05-23T02:39:56.644Z,13.55
2023-05-23T02:42:23.338Z,12.00
2023-05-23T02:44:50.040Z,13.10
2023-05-23T02:47:16.706Z,13.07
2023-05-23T02:49:43.394Z,14.30
2023-05-23T02:52:10.061Z,16.33
2023-05-23T02:54:36.687Z,16.05
2023-05-23T02:57:04.295Z,14.77
2023-05-23T02:59:30.952Z,16.40
2023-05-23T03:01:57.743Z,16.38
2023-05-23T03:04:24.529Z,17.58
2023-05-23T03:06:54.425Z,15.98
2023-05-23T03:09:21.708Z,18.10
2023-05-23T03:11:48.652Z,18.02
2023-05-23T03:14:15.454Z,19.10
2023-05-23T03:16:42.475Z,20.40
2023-05-23T03:19:09.365Z,20.45
2023-05-23T03:21:36.378Z,19.95
2023-05-23T03:24:03.556Z,18.83
2023-05-23T03:26:30.779Z,20.17
2023-05-23T03:28:57.587Z,20.80
2023-05-23T03:31:24.511Z,20.58
2023-05-23T03:33:51.418Z,20.83
2023-05-23T03:36:18.542Z,20.20
2023-05-23T03:38:45.356Z,19.15
2023-05-23T03:41:12.136Z,21.77
2023-05-23T03:43:38.940Z,20.70
2023-05-23T03:46:05.809Z,21.73
2023-05-23T03:48:32.657Z,20.20
2023-05-23T03:50:59.498Z,22.10
2023-05-23T03:53:26.342Z,21.38
2023-05-23T03:55:54.114Z,21.23
2023-05-23T03:58:21.203Z,20.75
2023-05-23T04:00:48.093Z,20.27
2023-05-23T04:03:15.828Z,20.27
2023-05-23T04:05:43.146Z,21.33
2023-05-23T04:08:10.172Z,19.58
2023-05-23T04:10:37.059Z,19.35
2023-05-23T04:13:03.891Z,20.20
2023-05-23T04:15:30.702Z,20.88
2023-05-23T04:17:58.134Z,20.88
2023-05-23T04:20:25.104Z,20.58
2023-05-23T04:22:52.040Z,22.27
2023-05-23T04:25:20.314Z,19.27
2023-05-23T04:27:47.342Z,19.02
2023-05-23T04:30:14.313Z,20.50
2023-05-23T04:32:41.037Z,19.63
2023-05-23T04:35:08.099Z,19.13
2023-05-23T04:37:35.267Z,20.35
2023-05-23T04:40:01.987Z,19.88
2023-05-23T04:42:29.378Z,20.38
2023-05-23T04:44:58.850Z,19.25
2023-05-23T04:47:28.078Z,19.73
2023-05-23T04:49:58.019Z,21.07
2023-05-23T04:52:25.505Z,20.38
2023-05-23T04:54:54.060Z,19.70
2023-05-23T04:57:20.952Z,20.77
2023-05-23T04:59:47.633Z,20.15
2023-05-23T05:02:14.366Z,21.35
2023-05-23T05:04:41.132Z,22.35
2023-05-23T05:07:07.947Z,23.45
2023-05-23T05:09:34.810Z,24.23
2023-05-23T05:12:01.637Z,23.02
2023-05-23T05:14:28.476Z,22.88
2023-05-23T05:16:57.448Z,23.52
2023-05-23T05:19:24.874Z,26.30
2023-05-23T05:21:52.433Z,24.58
2023-05-23T05:24:21.066Z,25.20
2023-05-23T05:26:48.306Z,23.27
2023-05-23T05:29:15.290Z,23.02
2023-05-23T05:31:43.512Z,24.02
2023-05-23T05:34:10.228Z,24.73
2023-05-23T05:36:36.940Z,23.02
2023-05-23T05:39:03.702Z,23.40
2023-05-23T05:41:30.432Z,27.20
2023-05-23T05:43:57.122Z,26.45
2023-05-23T05:46:23.868Z,26.20
2023-05-23T05:48:50.669Z,26.25
2023-05-23T05:51:17.545Z,26.52
2023-05-23T05:53:44.207Z,26.02
2023-05-23T05:56:10.931Z,24.67
2023-05-23T05:58:37.662Z,27.25
2023-05-23T06:01:05.722Z,26.70
2023-05-23T06:03:33.837Z,26.60
2023-05-23T06:06:00.898Z,27.27
2023-05-23T06:08:27.714Z,27.33
2023-05-23T06:10:54.422Z,26.27
2023-05-23T06:13:21.151Z,27.33
2023-05-23T06:15:47.874Z,27.88
2023-05-23T06:18:14.647Z,27.90
2023-05-23T06:20:41.564Z,27.88
2023-05-23T06:23:08.845Z,28.58
2023-05-23T06:25:35.603Z,27.77
2023-05-23T06:28:02.246Z,28.67
2023-05-23T06:30:29.582Z,26.88
2023-05-23T06:32:56.680Z,28.42
2023-05-23T06:35:23.412Z,28.85
2023-05-23T06:37:50.064Z,28.40
2023-05-23T06:40:16.919Z,30.17
2023-05-23T06:42:43.641Z,29.08
2023-05-23T06:45:10.831Z,29.75
2023-05-23T06:47:37.580Z,30.13
2023-05-23T06:50:04.710Z,29.90
2023-05-23T06:52:31.413Z,28.90
2023-05-23T06:54:58.099Z,28.67
2023-05-23T06:57:24.776Z,28.85
2023-05-23T06:59:51.431Z,30.60
2023-05-23T07:02:18.119Z,29.33
2023-05-23T07:04:44.766Z,29.63
2023-05-23T07:07:11.483Z,29.70
2023-05-23T07:09:39.086Z,30.58
2023-05-23T07:12:06.986Z,30.58
2023-05-23T07:14:35.664Z,32.60
2023-05-23T07:17:02.410Z,31.15
2023-05-23T07:19:29.290Z,31.73
2023-05-23T07:21:56.180Z,32.28
2023-05-23T07:24:25.050Z,32.10
2023-05-23T07:26:52.028Z,31.13
2023-05-23T07:29:18.868Z,31.05
2023-05-23T07:31:45.916Z,31.63
2023-05-23T07:34:12.652Z,30.83
2023-05-23T07:36:40.858Z,30.67
2023-05-23T07:39:07.698Z,31.70
2023-05-23T07:41:34.416Z,31.67
2023-05-23T07:44:01.209Z,31.67
2023-05-23T07:46:27.916Z,30.80
2023-05-23T07:48:55.310Z,31.20
2023-05-23T07:51:22.009Z,32.08
2023-05-23T07:53:48.719Z,30.73
2023-05-23T07:56:15.740Z,31.60
2023-05-23T07:58:42.406Z,29.00
2023-05-23T08:01:09.100Z,29.77
2023-05-23T08:03:35.799Z,29.60
2023-05-23T08:06:02.485Z,30.77
2023-05-23T08:08:29.161Z,31.13
2023-05-23T08:10:55.808Z,29.90
2023-05-23T08:13:22.460Z,30.65
2023-05-23T08:15:49.307Z,33.25
2023-05-23T08:18:16.824Z,33.78
2023-05-23T08:20:43.874Z,32.65
2023-05-23T08:23:12.050Z,32.15
2023-05-23T08:25:39.016Z,32.78
2023-05-23T08:28:05.688Z,34.72
2023-05-23T08:30:33.645Z,33.92
2023-05-23T08:33:04.618Z,33.50
2023-05-23T08:35:36.252Z,34.75
2023-05-23T08:38:07.731Z,32.33
2023-05-23T08:40:36.224Z,33.55
2023-05-23T08:43:03.318Z,32.60
2023-05-23T08:45:30.950Z,33.92
2023-05-23T08:48:01.162Z,32.75
2023-05-23T08:50:30.457Z,33.47
2023-05-23T08:52:59.002Z,35.30
2023-05-23T08:55:27.940Z,34.38
2023-05-23T08:58:01.520Z,33.10
2023-05-23T09:00:28.499Z,33.35
2023-05-23T09:02:56.637Z,31.98
2023-05-23T09:05:23.604Z,33.33
2023-05-23T09:07:54.978Z,33.00
2023-05-23T09:10:21.722Z,32.38
2023-05-23T09:12:49.387Z,34.17
2023-05-23T09:15:17.398Z,32.60
2023-05-23T09:17:45.092Z,34.92
2023-05-23T09:20:14.519Z,34.50
2023-05-23T09:22:45.900Z,35.78
2023-05-23T09:25:12.643Z,34.63
2023-05-23T09:27:39.414Z,34.63
2023-05-23T09:30:13.388Z,34.05
2023-05-23T09:32:40.528Z,34.88
2023-05-23T09:35:08.457Z,35.92
2023-05-23T09:37:37.739Z,34.22
2023-05-23T09:40:13.401Z,33.27
2023-05-23T09:42:44.940Z,33.45
2023-05-23T09:45:16.213Z,36.08
2023-05-23T09:47:52.824Z,35.75
2023-05-23T09:50:20.853Z,35.22
2023-05-23T09:52:48.072Z,35.33
2023-05-23T09:55:15.225Z,34.60
2023-05-23T09:57:43.443Z,34.60
2023-05-23T10:00:12.331Z,33.47
2023-05-23T10:03:12.639Z,33.53
2023-05-23T10:08:31.219Z,32.70
2023-05-23T10:10:57.856Z,32.70
2023-05-23T10:13:29.183Z,34.13
2023-05-23T10:16:05.679Z,32.50
2023-05-23T10:18:39.251Z,33.05
2023-05-23T10:21:15.696Z,33.97
2023-05-23T10:23:44.578Z,32.42
2023-05-23T10:26:11.917Z,31.85
2023-05-23T10:28:40.565Z,31.02
2023-05-23T10:31:08.064Z,32.50
2023-05-23T10:33:40.525Z,33.22
2023-05-23T10:36:19.225Z,32.28
2023-05-23T10:38:58.591Z,30.30
2023-05-23T10:41:53.962Z,31.17
2023-05-23T10:44:31.117Z,29.15
2023-05-23T10:47:02.309Z,28.55
2023-05-23T10:49:51.587Z,27.35
2023-05-23T10:52:18.595Z,29.00
2023-05-23T10:54:48.506Z,28.35
2023-05-23T10:57:21.118Z,28.10
2023-05-23T10:59:50.667Z,29.60
2023-05-23T11:02:26.432Z,29.02
2023-05-23T11:05:22.886Z,27.70
2023-05-23T11:08:14.896Z,28.17
2023-05-23T11:10:56.641Z,25.67
2023-05-23T11:13:23.730Z,27.50
2023-05-23T11:15:51.048Z,24.58
2023-05-23T11:18:26.524Z,24.55
2023-05-23T11:20:54.899Z,25.15
2023-05-23T11:23:22.985Z,26.20
2023-05-23T11:25:52.112Z,22.77
2023-05-23T11:28:19.810Z,24.90
2023-05-23T11:30:49.986Z,23.42
2023-05-23T11:35:48.824Z,21.70
2023-05-23T11:38:16.806Z,22.73
2023-05-23T11:40:47.566Z,23.42
2023-05-23T11:43:16.778Z,23.40
2023-05-23T11:45:44.050Z,23.58
2023-05-23T11:48:12.634Z,21.92
2023-05-23T11:50:46.950Z,22.25
2023-05-23T11:53:17.518Z,22.13
2023-05-23T11:55:55.654Z,22.00
2023-05-23T11:58:26.734Z,23.27
2023-05-23T12:01:02.450Z,20.23
2023-05-23T12:03:29.881Z,19.58
2023-05-23T12:05:56.798Z,21.30
2023-05-23T12:08:23.727Z,22.90
2023-05-23T12:11:01.617Z,22.05
2023-05-23T12:13:30.027Z,21.17
2023-05-23T12:16:01.524Z,20.55
2023-05-23T12:18:29.859Z,21.20
2023-05-23T12:21:01.507Z,21.77
2023-05-23T12:23:28.988Z,21.80
2023-05-23T12:25:56.884Z,21.08
2023-05-23T12:28:43.579Z,22.77
2023-05-23T12:31:10.471Z,23.70
2023-05-23T12:33:44.044Z,23.27
2023-05-23T12:36:14.813Z,23.55
2023-05-23T12:38:45.353Z,22.88
2023-05-23T12:41:15.897Z,22.02
2023-05-23T12:43:54.357Z,21.58
2023-05-23T12:46:22.182Z,21.50
2023-05-23T12:48:49.436Z,20.77
2023-05-23T12:51:16.479Z,22.30
2023-05-23T12:53:43.352Z,21.83
2023-05-23T12:56:10.080Z,21.70
2023-05-23T12:58:36.950Z,18.20
2023-05-23T13:01:03.969Z,19.63
2023-05-23T13:03:32.325Z,19.85
2023-05-23T13:05:59.745Z,20.00
2023-05-23T13:08:29.623Z,19.45
2023-05-23T13:10:57.148Z,18.48
2023-05-23T13:13:24.271Z,17.75
2023-05-23T13:15:51.761Z,16.10
2023-05-23T13:18:19.034Z,16.33
2023-05-23T13:20:46.307Z,17.63
2023-05-23T13:23:13.282Z,16.70
2023-05-23T13:25:40.223Z,17.13
2023-05-23T13:28:07.099Z,16.58
2023-05-23T13:30:34.591Z,14.45
2023-05-23T13:33:01.596Z,15.05
2023-05-23T13:35:28.584Z,15.27
2023-05-23T13:37:55.412Z,14.30
2023-05-23T13:40:23.473Z,15.85
2023-05-23T13:42:51.335Z,13.93
2023-05-23T13:45:19.087Z,13.70
2023-05-23T13:47:46.685Z,13.75
2023-05-23T13:50:13.574Z,14.18
2023-05-23T13:52:44.094Z,14.65
2023-05-23T13:55:12.805Z,13.82
2023-05-23T13:57:39.500Z,12.38
2023-05-23T14:00:08.885Z,13.60
2023-05-23T14:02:35.811Z,12.38
2023-05-23T14:05:02.836Z,13.02
2023-05-23T14:07:29.692Z,10.85
2023-05-23T14:09:57.519Z,10.98
2023-05-23T14:12:24.262Z,11.93
2023-05-23T14:14:50.976Z,11.60
2023-05-23T14:17:17.955Z,13.05
2023-05-23T14:19:45.755Z,11.65
2023-05-23T14:22:12.619Z,11.13
2023-05-23T14:24:39.344Z,10.60
2023-05-23T14:27:08.062Z,10.43
2023-05-23T14:29:36.220Z,10.68
2023-05-23T14:32:04.138Z,10.75
2023-05-23T14:34:31.390Z,10.73
2023-05-23T14:36:58.054Z,9.75
2023-05-23T14:39:25.515Z,11.30
2023-05-23T14:41:52.367Z,10.68
2023-05-23T14:44:19.488Z,10.88
2023-05-23T14:46:50.106Z,11.85
2023-05-23T14:49:17.769Z,9.73
2023-05-23T14:51:50.433Z,10.38
2023-05-23T14:54:18.649Z,9.55
2023-05-23T14:56:45.489Z,8.80
2023-05-23T14:59:12.192Z,9.20
2023-05-23T15:01:40.184Z,8.70
2023-05-23T15:04:09.134Z,9.10
2023-05-23T15:06:37.918Z,8.25
2023-05-23T15:09:04.884Z,8.38
2023-05-23T15:11:32.218Z,8.00
2023-05-23T15:13:59.798Z,9.05
2023-05-23T15:16:26.841Z,9.63
2023-05-23T15:18:53.824Z,9.02
2023-05-23T15:21:21.056Z,7.57
2023-05-23T15:23:47.739Z,8.23
2023-05-23T15:26:14.508Z,7.97
2023-05-23T15:28:41.207Z,8.43
2023-05-23T15:31:07.867Z,7.85
2023-05-23T15:33:34.576Z,8.48
2023-05-23T15:36:01.318Z,7.80
2023-05-23T15:38:28.289Z,6.70
2023-05-23T15:40:56.446Z,7.28
2023-05-23T15:43:24.904Z,7.43
2023-05-23T15:45:52.494Z,7.28
2023-05-23T15:48:19.521Z,7.07
2023-05-23T15:50:46.388Z,7.10
2023-05-23T15:53:13.130Z,8.27
2023-05-23T15:55:42.071Z,6.65
2023-05-23T15:58:10.012Z,6.60
2023-05-23T16:00:36.713Z,7.93
2023-05-23T16:03:03.547Z,7.30
2023-05-23T16:05:30.417Z,6.88
2023-05-23T16:07:57.195Z,6.70
2023-05-23T16:10:24.729Z,6.80
2023-05-23T16:12:51.678Z,7.40
2023-05-23T16:15:18.665Z,7.75
2023-05-23T16:17:45.632Z,6.60
2023-05-23T16:20:12.727Z,6.53
2023-05-23T16:22:40.114Z,5.90
2023-05-23T16:25:09.038Z,6.30
2023-05-23T16:27:35.788Z,6.65
2023-05-23T16:30:02.647Z,6.50
2023-05-23T16:32:29.896Z,6.07
2023-05-23T16:34:56.669Z,6.05
2023-05-23T16:37:23.601Z,6.05
2023-05-23T16:39:50.493Z,5.68
2023-05-23T16:42:17.861Z,6.03
2023-05-23T16:44:45.498Z,6.90
2023-05-23T16:47:12.356Z,5.85
2023-05-23T16:49:39.078Z,4.95
2023-05-23T16:52:05.979Z,5.32
2023-05-23T16:54:32.663Z,5.13
2023-05-23T16:57:02.360Z,4.85
2023-05-23T16:59:29.889Z,4.70
2023-05-23T17:01:57.059Z,4.85
2023-05-23T17:04:24.088Z,5.03
2023-05-23T17:06:51.050Z,5.40
2023-05-23T17:09:18.192Z,5.43
2023-05-23T17:11:45.155Z,5.43
2023-05-23T17:14:12.806Z,5.28
2023-05-23T17:16:39.716Z,4.97
2023-05-23T17:19:07.485Z,5.60
2023-05-23T17:21:34.312Z,4.78
2023-05-23T17:24:01.855Z,4.68
2023-05-23T17:26:28.774Z,5.20
2023-05-23T17:28:55.747Z,4.95
2023-05-23T17:31:22.477Z,4.70
2023-05-23T17:33:49.215Z,4.93
2023-05-23T17:36:15.972Z,4.47
2023-05-23T17:38:42.629Z,4.57
2023-05-23T17:41:09.442Z,4.93
2023-05-23T17:43:36.180Z,4.20
2023-05-23T17:46:03.030Z,4.90
2023-05-23T17:48:45.722Z,4.63
2023-05-23T17:51:13.679Z,4.13
2023-05-23T17:53:41.762Z,4.22
2023-05-23T17:56:09.386Z,4.50
2023-05-23T17:58:37.753Z,4.68
2023-05-23T18:01:05.301Z,3.60
2023-05-23T18:03:32.175Z,3.85
2023-05-23T18:05:58.912Z,3.33
2023-05-23T18:08:25.758Z,3.67
2023-05-23T18:10:52.539Z,4.00
2023-05-23T18:13:19.331Z,3.92
2023-05-23T18:15:46.069Z,3.90
2023-05-23T18:18:12.829Z,3.58
2023-05-23T18:20:39.873Z,4.03
2023-05-23T18:23:09.260Z,3.50
2023-05-23T18:25:36.460Z,3.45
2023-05-23T18:28:03.153Z,3.65
2023-05-23T18:30:29.902Z,3.45
2023-05-23T18:32:56.989Z,3.70
2023-05-23T18:35:25.663Z,4.05
2023-05-23T18:37:53.156Z,3.47
2023-05-23T18:40:21.720Z,3.63
2023-05-23T18:42:50.192Z,3.70
2023-05-23T18:45:16.992Z,3.75
2023-05-23T18:47:44.711Z,4.03
2023-05-23T18:50:13.036Z,4.28
2023-05-23T18:52:40.059Z,3.83
2023-05-23T18:55:07.565Z,3.97
2023-05-23T18:57:34.452Z,4.20
2023-05-23T19:00:03.183Z,4.40
2023-05-23T19:02:29.974Z,4.13
2023-05-23T19:04:56.764Z,4.75
2023-05-23T19:07:23.524Z,4.60
2023-05-23T19:09:53.057Z,4.50
2023-05-23T19:12:19.990Z,4.30
2023-05-23T19:14:47.021Z,4.97
2023-05-23T19:17:13.770Z,4.22
2023-05-23T19:19:40.509Z,5.10
2023-05-23T19:22:07.383Z,4.60
2023-05-23T19:24:34.182Z,4.55
2023-05-23T19:27:02.009Z,4.70
2023-05-23T19:29:28.752Z,4.85
2023-05-23T19:31:55.602Z,5.20
2023-05-23T19:34:22.508Z,5.05
2023-05-23T19:36:52.574Z,4.80
2023-05-23T19:39:19.730Z,4.90
2023-05-23T19:41:46.463Z,5.15
2023-05-23T19:44:13.604Z,5.38
2023-05-23T19:46:40.351Z,5.13
2023-05-23T19:49:08.333Z,5.97
2023-05-23T19:51:36.523Z,6.13
2023-05-23T19:54:03.408Z,5.43
2023-05-23T19:56:30.113Z,5.80
2023-05-23T19:58:56.818Z,5.72
2023-05-23T20:01:23.553Z,5.40
2023-05-23T20:03:50.416Z,5.32
2023-05-23T20:06:17.098Z,4.68
2023-05-23T20:08:43.850Z,5.50
2023-05-23T20:11:12.493Z,5.65
2023-05-23T20:13:39.297Z,5.32
2023-05-23T20:16:07.860Z,5.32
2023-05-23T20:18:34.855Z,5.22
2023-05-23T20:21:04.275Z,5.15
2023-05-23T20:25:58.482Z,6.53
2023-05-23T20:28:25.278Z,6.70
2023-05-23T20:30:52.038Z,6.78
2023-05-23T20:33:19.269Z,7.90
2023-05-23T20:35:48.363Z,7.47
2023-05-23T20:38:18.506Z,7.65
2023-05-23T20:43:15.043Z,7.60
2023-05-23T20:45:42.190Z,7.63
2023-05-23T20:48:09.119Z,7.85
2023-05-23T20:50:36.640Z,8.45
2023-05-23T20:53:03.649Z,8.45
2023-05-23T20:55:30.348Z,8.93
2023-05-23T20:57:57.027Z,8.18
2023-05-23T21:00:24.197Z,7.93
2023-05-23T21:02:51.006Z,7.57
2023-05-23T21:05:17.928Z,7.82
2023-05-23T21:07:44.716Z,8.68
2023-05-23T21:10:11.483Z,8.88
2023-05-23T21:12:38.318Z,8.80
2023-05-23T21:15:05.318Z,9.15
2023-05-23T21:17:32.052Z,8.65
2023-05-23T21:19:58.734Z,8.85
2023-05-23T21:22:25.514Z,9.45
2023-05-23T21:24:52.160Z,9.50
2023-05-23T21:27:18.892Z,8.07
2023-05-23T21:29:46.883Z,9.43
2023-05-23T21:32:13.842Z,9.00
2023-05-23T21:34:40.561Z,8.75
2023-05-23T21:37:07.430Z,9.35
2023-05-23T21:39:47.034Z,8.15
2023-05-23T21:42:18.099Z,8.80
2023-05-23T21:44:44.834Z,8.02
2023-05-23T21:47:11.571Z,8.48
2023-05-23T21:49:40.248Z,8.10
2023-05-23T21:52:06.977Z,7.50
2023-05-23T21:54:33.686Z,9.25
2023-05-23T21:57:00.508Z,9.82
2023-05-23T21:59:27.190Z,9.50
2023-05-23T22:01:53.932Z,9.18
2023-05-23T22:04:20.659Z,9.60
2023-05-23T22:06:47.386Z,10.68
2023-05-23T22:09:15.435Z,9.93
2023-05-23T22:11:42.933Z,10.40
2023-05-23T22:14:10.172Z,10.85
2023-05-23T22:16:40.302Z,11.77
2023-05-23T22:21:34.937Z,10.90
2023-05-23T22:24:01.689Z,11.80
2023-05-23T22:26:28.467Z,13.00
2023-05-23T22:28:55.747Z,13.48
2023-05-23T22:31:24.052Z,12.95
2023-05-23T22:33:51.281Z,13.00
2023-05-23T22:36:18.371Z,13.30
2023-05-23T22:38:45.707Z,14.20
2023-05-23T22:41:12.683Z,13.13
2023-05-23T22:43:39.824Z,13.88
2023-05-23T22:46:07.166Z,12.82
2023-05-23T22:48:34.301Z,12.23
2023-05-23T22:51:02.289Z,12.82
2023-05-23T22:53:30.050Z,13.30
2023-05-23T22:55:57.813Z,13.35
2023-05-23T22:58:24.651Z,13.07
2023-05-23T23:00:51.890Z,12.15
2023-05-23T23:03:18.870Z,13.38
2023-05-23T23:05:46.373Z,12.98
2023-05-23T23:08:13.194Z,11.82
2023-05-23T23:10:41.420Z,12.57
2023-05-23T23:13:08.536Z,12.77
2023-05-23T23:15:36.529Z,12.02
2023-05-23T23:18:03.356Z,13.05
2023-05-23T23:20:30.201Z,12.07
2023-05-23T23:22:57.615Z,11.50
2023-05-23T23:25:24.381Z,11.85
2023-05-23T23:27:51.079Z,10.50
2023-05-23T23:30:17.892Z,11.85
2023-05-23T23:32:44.623Z,10.70
2023-05-23T23:35:11.398Z,10.50
2023-05-23T23:37:38.148Z,10.23
2023-05-23T23:40:05.252Z,9.82
2023-05-23T23:42:31.975Z,8.98
2023-05-23T23:44:58.730Z,8.80
2023-05-23T23:47:25.506Z,9.35
2023-05-23T23:49:52.252Z,8.57
2023-05-23T23:52:18.992Z,9.18
2023-05-23T23:54:45.818Z,8.77
2023-05-23T23:57:14.068Z,8.88
2023-05-23T23:59:44.147Z,8.73
